createdAt,value
2018-12-13T00:01:34.726Z,50.33
2018-12-13T00:03:09.672Z,47.40
2018-12-13T00:04:44.610Z,45.43
2018-12-13T00:06:19.569Z,48.15
2018-12-13T00:07:54.451Z,47.15
2018-12-13T00:09:29.389Z,45.15
2018-12-13T00:11:04.309Z,45.55
2018-12-13T00:12:39.240Z,48.20
2018-12-13T00:14:14.211Z,45.33
2018-12-13T00:15:49.207Z,43.20
2018-12-13T00:17:24.136Z,47.60
2018-12-13T00:18:59.091Z,44.15
2018-12-13T00:20:34.095Z,42.83
2018-12-13T00:22:09.018Z,47.23
2018-12-13T00:23:43.986Z,42.25
2018-12-13T00:25:18.887Z,48.35
2018-12-13T00:26:53.851Z,43.38
2018-12-13T00:28:28.761Z,43.05
2018-12-13T00:30:03.671Z,41.68
2018-12-13T00:31:38.885Z,42.05
2018-12-13T00:33:13.811Z,49.00
2018-12-13T00:34:48.763Z,47.90
2018-12-13T00:36:23.683Z,42.78
2018-12-13T00:37:58.810Z,44.58
2018-12-13T00:39:33.739Z,47.43
2018-12-13T00:41:08.632Z,44.25
2018-12-13T00:42:43.551Z,47.13
2018-12-13T00:44:18.477Z,52.65
2018-12-13T00:45:53.379Z,47.75
2018-12-13T00:47:28.303Z,51.95
2018-12-13T00:49:03.215Z,52.48
2018-12-13T00:50:38.254Z,56.28
2018-12-13T00:52:19.300Z,56.83
2018-12-13T00:53:54.178Z,53.63
2018-12-13T00:55:29.078Z,57.83
2018-12-13T00:57:04.016Z,52.48
2018-12-13T00:58:39.027Z,53.60
2018-12-13T01:00:14.102Z,52.30
2018-12-13T01:01:49.066Z,48.73
2018-12-13T01:03:24.007Z,48.02
2018-12-13T01:04:59.019Z,49.48
2018-12-13T01:06:33.990Z,50.48
2018-12-13T01:08:09.116Z,44.42
2018-12-13T01:09:44.001Z,47.43
2018-12-13T01:11:18.967Z,48.02
2018-12-13T01:12:53.915Z,47.05
2018-12-13T01:14:28.839Z,48.98
2018-12-13T01:16:03.863Z,50.28
2018-12-13T01:17:39.109Z,51.53
2018-12-13T01:19:14.020Z,53.30
2018-12-13T01:20:48.941Z,50.78
2018-12-13T01:22:23.928Z,57.95
2018-12-13T01:23:58.885Z,53.45
2018-12-13T01:25:33.821Z,57.90
2018-12-13T01:27:08.766Z,61.53
2018-12-13T01:28:43.793Z,53.73
2018-12-13T01:30:18.741Z,48.23
2018-12-13T01:31:54.331Z,53.50
2018-12-13T01:33:29.279Z,56.30
2018-12-13T01:35:10.887Z,55.83
2018-12-13T01:36:45.775Z,51.68
2018-12-13T01:38:20.706Z,55.10
2018-12-13T01:39:55.670Z,54.67
2018-12-13T01:41:30.570Z,63.08
2018-12-13T01:43:05.468Z,58.00
2018-12-13T01:44:40.394Z,54.48
2018-12-13T01:46:15.614Z,49.88
2018-12-13T01:47:50.612Z,57.65
2018-12-13T01:49:25.544Z,54.63
2018-12-13T01:51:00.431Z,53.13
2018-12-13T01:52:35.431Z,54.48
2018-12-13T01:54:10.330Z,55.75
2018-12-13T01:55:45.275Z,51.08
2018-12-13T01:57:20.154Z,51.05
2018-12-13T01:58:55.137Z,52.53
2018-12-13T02:00:30.073Z,53.58
2018-12-13T02:02:05.030Z,57.45
2018-12-13T02:03:39.953Z,49.30
2018-12-13T02:05:14.931Z,61.23
2018-12-13T02:06:49.843Z,60.08
2018-12-13T02:08:24.983Z,60.98
2018-12-13T02:09:59.972Z,58.50
2018-12-13T02:11:34.934Z,56.10
2018-12-13T02:13:09.863Z,61.53
2018-12-13T02:14:44.853Z,58.80
2018-12-13T02:16:19.817Z,55.17
2018-12-13T02:17:54.722Z,69.37
2018-12-13T02:19:29.627Z,62.93
2018-12-13T02:21:04.952Z,57.93
2018-12-13T02:22:39.887Z,61.00
2018-12-13T02:24:14.928Z,58.90
2018-12-13T02:25:49.888Z,62.73
2018-12-13T02:27:24.839Z,62.20
2018-12-13T02:28:59.819Z,56.45
2018-12-13T02:30:34.800Z,58.70
2018-12-13T02:32:09.879Z,57.70
2018-12-13T02:33:44.884Z,58.20
2018-12-13T02:35:25.995Z,58.80
2018-12-13T02:37:06.001Z,56.48
2018-12-13T02:38:37.893Z,56.42
2018-12-13T02:40:12.818Z,57.17
2018-12-13T02:41:47.767Z,54.75
2018-12-13T02:43:22.751Z,60.43
2018-12-13T02:44:57.730Z,60.38
2018-12-13T02:46:32.718Z,57.73
2018-12-13T02:48:07.699Z,54.40
2018-12-13T02:49:42.928Z,57.00
2018-12-13T02:51:17.963Z,56.05
2018-12-13T02:52:52.836Z,61.10
2018-12-13T02:54:27.739Z,58.87
2018-12-13T02:56:02.689Z,56.45
2018-12-13T02:57:37.605Z,59.85
2018-12-13T02:59:12.583Z,61.73
2018-12-13T03:00:47.525Z,62.78
2018-12-13T03:02:22.451Z,61.13
2018-12-13T03:03:57.577Z,65.97
2018-12-13T03:05:32.514Z,62.98
2018-12-13T03:07:13.670Z,62.40
2018-12-13T03:08:44.441Z,62.08
2018-12-13T03:10:19.830Z,62.90
2018-12-13T03:11:54.739Z,59.65
2018-12-13T03:13:29.649Z,62.58
2018-12-13T03:15:04.895Z,60.33
2018-12-13T03:16:40.284Z,68.12
2018-12-13T03:18:15.222Z,70.15
2018-12-13T03:19:50.152Z,68.55
2018-12-13T03:21:25.122Z,70.70
2018-12-13T03:23:00.163Z,77.92
2018-12-13T03:24:35.118Z,65.95
2018-12-13T03:26:10.047Z,65.20
2018-12-13T03:27:45.041Z,72.03
2018-12-13T03:29:19.979Z,76.12
2018-12-13T03:30:54.861Z,71.75
2018-12-13T03:32:29.872Z,72.92
2018-12-13T03:34:04.926Z,69.95
2018-12-13T03:35:39.816Z,64.40
2018-12-13T03:37:20.622Z,78.75
2018-12-13T03:38:51.735Z,70.97
2018-12-13T03:40:26.624Z,77.25
2018-12-13T03:42:01.613Z,77.47
2018-12-13T03:43:36.538Z,74.05
2018-12-13T03:45:11.817Z,63.38
2018-12-13T03:46:46.759Z,67.95
2018-12-13T03:48:21.675Z,74.47
2018-12-13T03:49:56.604Z,76.35
2018-12-13T03:51:31.584Z,74.77
2018-12-13T03:53:06.555Z,71.67
2018-12-13T03:54:41.489Z,70.03
2018-12-13T03:56:16.844Z,72.87
2018-12-13T03:57:51.910Z,64.32
2018-12-13T03:59:26.845Z,67.10
2018-12-13T04:01:01.750Z,69.45
2018-12-13T04:02:36.796Z,65.70
2018-12-13T04:04:11.736Z,68.60
2018-12-13T04:05:46.658Z,69.15
2018-12-13T04:07:28.233Z,61.63
2018-12-13T04:09:03.535Z,65.50
2018-12-13T04:10:41.423Z,69.92
2018-12-13T04:12:16.361Z,59.42
2018-12-13T04:13:51.300Z,59.25
2018-12-13T04:15:26.267Z,63.30
2018-12-13T04:17:01.246Z,59.75
2018-12-13T04:18:36.165Z,68.92
2018-12-13T04:20:11.112Z,70.08
2018-12-13T04:21:46.040Z,64.07
2018-12-13T04:23:21.072Z,64.32
2018-12-13T04:24:55.969Z,68.25
2018-12-13T04:26:30.860Z,65.52
2018-12-13T04:28:05.828Z,65.05
2018-12-13T04:29:40.813Z,66.02
2018-12-13T04:31:15.730Z,71.67
2018-12-13T04:32:50.691Z,68.50
2018-12-13T04:34:25.614Z,65.22
2018-12-13T04:36:00.582Z,66.67
2018-12-13T04:37:35.520Z,65.32
2018-12-13T04:39:10.812Z,68.17
2018-12-13T04:40:45.694Z,63.17
2018-12-13T04:42:20.627Z,70.10
2018-12-13T04:43:55.570Z,75.62
2018-12-13T04:45:30.543Z,71.40
2018-12-13T04:47:05.720Z,70.35
2018-12-13T04:48:40.662Z,73.42
2018-12-13T04:50:16.009Z,73.78
2018-12-13T04:51:50.956Z,69.05
2018-12-13T04:53:25.879Z,68.72
2018-12-13T04:55:00.815Z,80.60
2018-12-13T04:56:35.791Z,70.52
2018-12-13T04:58:10.731Z,76.00
2018-12-13T04:59:45.611Z,72.67
2018-12-13T05:01:20.535Z,71.17
2018-12-13T05:02:55.524Z,72.25
2018-12-13T05:04:30.419Z,79.53
2018-12-13T05:06:05.379Z,82.17
2018-12-13T05:07:41.807Z,75.15
2018-12-13T05:09:17.016Z,72.65
2018-12-13T05:10:54.293Z,70.57
2018-12-13T05:12:29.330Z,75.70
2018-12-13T05:14:04.337Z,72.10
2018-12-13T05:15:39.380Z,71.00
2018-12-13T05:17:14.381Z,73.50
2018-12-13T05:18:49.559Z,71.33
2018-12-13T05:20:24.464Z,70.60
2018-12-13T05:21:59.447Z,66.95
2018-12-13T05:23:34.324Z,63.65
2018-12-13T05:25:09.268Z,63.25
2018-12-13T05:26:44.507Z,63.65
2018-12-13T05:28:19.511Z,63.90
2018-12-13T05:29:54.452Z,61.15
2018-12-13T05:31:29.528Z,64.95
2018-12-13T05:33:04.502Z,65.55
2018-12-13T05:34:39.456Z,61.45
2018-12-13T05:36:14.366Z,57.88
2018-12-13T05:37:49.273Z,63.23
2018-12-13T05:39:24.178Z,64.95
2018-12-13T05:40:59.187Z,65.00
2018-12-13T05:42:34.117Z,63.68
2018-12-13T05:44:09.091Z,62.00
2018-12-13T05:45:43.984Z,55.35
2018-12-13T05:47:18.915Z,58.35
2018-12-13T05:48:54.610Z,66.53
2018-12-13T05:50:29.834Z,60.73
2018-12-13T05:52:04.759Z,60.55
2018-12-13T05:53:39.752Z,62.35
2018-12-13T05:55:14.831Z,57.67
2018-12-13T05:56:49.766Z,56.70
2018-12-13T05:58:27.734Z,63.38
2018-12-13T06:00:02.684Z,63.38
2018-12-13T06:01:37.609Z,57.60
2018-12-13T06:03:12.561Z,64.30
2018-12-13T06:04:47.538Z,66.33
2018-12-13T06:06:22.428Z,64.95
2018-12-13T06:07:57.375Z,63.45
2018-12-13T06:09:32.299Z,58.25
2018-12-13T06:11:07.388Z,63.13
2018-12-13T06:12:42.328Z,62.70
2018-12-13T06:14:17.235Z,59.35
2018-12-13T06:15:52.175Z,61.40
2018-12-13T06:17:27.119Z,56.40
2018-12-13T06:19:01.980Z,63.65
2018-12-13T06:20:37.195Z,63.10
2018-12-13T06:22:12.186Z,60.08
2018-12-13T06:23:47.115Z,56.33
2018-12-13T06:25:22.000Z,57.65
2018-12-13T06:26:57.684Z,60.92
2018-12-13T06:28:32.601Z,56.08
2018-12-13T06:30:08.110Z,59.88
2018-12-13T06:31:43.088Z,59.27
2018-12-13T06:33:24.685Z,61.28
2018-12-13T06:34:55.124Z,56.18
2018-12-13T06:36:30.045Z,57.27
2018-12-13T06:38:05.031Z,62.62
2018-12-13T06:39:40.028Z,55.25
2018-12-13T06:41:14.912Z,60.60
2018-12-13T06:42:49.838Z,58.98
2018-12-13T06:44:24.755Z,62.55
2018-12-13T06:45:59.662Z,58.30
2018-12-13T06:47:34.552Z,57.17
2018-12-13T06:49:09.551Z,62.27
2018-12-13T06:50:44.463Z,64.07
2018-12-13T06:52:19.516Z,59.30
2018-12-13T06:53:54.423Z,62.13
2018-12-13T06:55:29.399Z,59.27
2018-12-13T06:57:04.310Z,65.50
2018-12-13T06:58:39.233Z,61.70
2018-12-13T07:00:14.255Z,62.75
2018-12-13T07:01:49.264Z,61.75
2018-12-13T07:03:24.227Z,57.90
2018-12-13T07:04:59.099Z,61.88
2018-12-13T07:06:34.158Z,61.58
2018-12-13T07:08:09.093Z,63.28
2018-12-13T07:09:50.488Z,60.58
2018-12-13T07:11:25.400Z,57.75
2018-12-13T07:13:00.336Z,58.40
2018-12-13T07:14:35.264Z,62.38
2018-12-13T07:16:10.188Z,59.27
2018-12-13T07:17:45.170Z,63.17
2018-12-13T07:19:20.099Z,62.85
2018-12-13T07:20:55.022Z,61.00
2018-12-13T07:22:29.987Z,61.30
2018-12-13T07:24:05.029Z,57.65
2018-12-13T07:25:39.972Z,57.23
2018-12-13T07:27:14.963Z,62.58
2018-12-13T07:28:49.872Z,59.83
2018-12-13T07:30:24.860Z,65.03
2018-12-13T07:31:59.835Z,60.60
2018-12-13T07:33:34.789Z,55.23
2018-12-13T07:35:09.868Z,59.58
2018-12-13T07:36:44.798Z,59.42
2018-12-13T07:38:19.779Z,58.23
2018-12-13T07:39:54.661Z,59.60
2018-12-13T07:41:29.528Z,64.65
2018-12-13T07:43:04.451Z,61.90
2018-12-13T07:44:39.422Z,63.25
2018-12-13T07:46:14.345Z,65.30
2018-12-13T07:47:49.254Z,68.45
2018-12-13T07:49:24.203Z,62.85
2018-12-13T07:50:59.195Z,63.02
2018-12-13T07:52:34.095Z,69.27
2018-12-13T07:54:09.023Z,66.67
2018-12-13T07:55:43.950Z,71.57
2018-12-13T07:57:18.917Z,67.35
2018-12-13T07:58:53.836Z,66.67
2018-12-13T08:00:28.781Z,70.62
2018-12-13T08:02:03.735Z,64.82
2018-12-13T08:03:38.691Z,62.93
2018-12-13T08:05:13.648Z,62.17
2018-12-13T08:06:48.602Z,60.58
2018-12-13T08:08:23.539Z,58.40
2018-12-13T08:09:58.468Z,64.20
2018-12-13T08:11:33.368Z,57.00
2018-12-13T08:13:08.347Z,59.88
2018-12-13T08:14:43.256Z,56.23
2018-12-13T08:16:18.216Z,59.85
2018-12-13T08:17:53.141Z,60.35
2018-12-13T08:19:28.052Z,58.00
2018-12-13T08:21:03.107Z,63.00
2018-12-13T08:22:44.495Z,62.67
2018-12-13T08:24:19.420Z,56.28
2018-12-13T08:25:54.441Z,59.45
2018-12-13T08:27:29.460Z,63.08
2018-12-13T08:29:04.455Z,58.75
2018-12-13T08:30:39.557Z,54.08
2018-12-13T08:32:14.436Z,57.38
2018-12-13T08:33:49.584Z,61.48
2018-12-13T08:35:24.487Z,58.20
2018-12-13T08:36:59.364Z,55.78
2018-12-13T08:38:34.308Z,56.88
2018-12-13T08:40:09.492Z,57.27
2018-12-13T08:41:44.407Z,57.35
2018-12-13T08:43:19.323Z,56.40
2018-12-13T08:44:54.264Z,62.45
2018-12-13T08:46:29.279Z,59.25
2018-12-13T08:48:04.243Z,53.68
2018-12-13T08:49:39.135Z,55.52
2018-12-13T08:51:14.124Z,55.03
2018-12-13T08:52:49.170Z,60.33
2018-12-13T08:54:24.097Z,61.77
2018-12-13T08:55:59.000Z,57.08
2018-12-13T08:57:34.040Z,52.60
2018-12-13T08:59:09.076Z,53.95
2018-12-13T09:00:43.990Z,56.90
2018-12-13T09:02:19.105Z,51.40
2018-12-13T09:03:54.042Z,52.30
2018-12-13T09:05:29.039Z,55.65
2018-12-13T09:07:03.939Z,51.40
2018-12-13T09:08:38.947Z,55.03
2018-12-13T09:10:13.872Z,50.08
2018-12-13T09:11:48.910Z,56.08
2018-12-13T09:13:24.826Z,53.70
2018-12-13T09:15:00.287Z,49.98
2018-12-13T09:16:35.828Z,49.80
2018-12-13T09:18:12.243Z,50.70
2018-12-13T09:19:54.402Z,52.38
2018-12-13T09:21:29.640Z,47.67
2018-12-13T09:23:05.070Z,47.40
2018-12-13T09:24:40.589Z,55.20
2018-12-13T09:26:16.870Z,51.63
2018-12-13T09:27:52.130Z,50.55
2018-12-13T09:29:27.369Z,52.30
2018-12-13T09:31:02.751Z,51.30
2018-12-13T09:32:38.032Z,49.18
2018-12-13T09:34:13.498Z,49.20
2018-12-13T09:35:49.974Z,49.67
2018-12-13T09:37:28.514Z,48.05
2018-12-13T09:39:04.383Z,50.85
2018-12-13T09:40:39.657Z,47.55
2018-12-13T09:42:14.851Z,47.08
2018-12-13T09:43:50.157Z,49.27
2018-12-13T09:45:25.523Z,48.25
2018-12-13T09:47:00.708Z,49.83
2018-12-13T09:48:35.925Z,49.73
2018-12-13T09:50:11.896Z,50.25
2018-12-13T09:51:48.337Z,52.90
2018-12-13T09:53:23.361Z,53.00
2018-12-13T09:54:58.411Z,50.48
2018-12-13T09:56:33.583Z,50.55
2018-12-13T09:58:08.482Z,49.35
2018-12-13T09:59:43.396Z,58.28
2018-12-13T10:01:57.118Z,51.35
2018-12-13T10:03:32.625Z,52.80
2018-12-13T10:05:08.277Z,50.43
2018-12-13T10:06:43.634Z,51.25
2018-12-13T10:08:19.122Z,52.90
2018-12-13T10:09:54.316Z,53.60
2018-12-13T10:11:29.536Z,56.50
2018-12-13T10:13:04.768Z,58.23
2018-12-13T10:14:39.951Z,54.25
2018-12-13T10:16:15.115Z,56.68
2018-12-13T10:17:50.274Z,52.48
2018-12-13T10:19:25.540Z,51.50
2018-12-13T10:21:00.841Z,47.27
2018-12-13T10:22:35.959Z,49.53
2018-12-13T10:24:11.118Z,50.15
2018-12-13T10:25:46.248Z,47.23
2018-12-13T10:27:22.658Z,45.25
2018-12-13T10:28:57.739Z,48.65
2018-12-13T10:30:32.884Z,46.73
2018-12-13T10:32:08.880Z,46.50
2018-12-13T10:33:44.036Z,45.65
2018-12-13T10:35:19.240Z,49.67
2018-12-13T10:36:54.305Z,43.30
2018-12-13T10:38:29.382Z,46.77
2018-12-13T10:40:05.254Z,40.83
2018-12-13T10:41:40.195Z,38.78
2018-12-13T10:43:15.124Z,40.98
2018-12-13T10:44:50.067Z,41.33
2018-12-13T10:46:25.007Z,43.98
2018-12-13T10:47:59.914Z,38.95
2018-12-13T10:49:35.052Z,39.60
2018-12-13T10:51:09.919Z,39.55
2018-12-13T10:52:44.869Z,35.15
2018-12-13T10:54:19.791Z,36.70
2018-12-13T10:55:54.825Z,34.75
2018-12-13T10:57:29.787Z,34.38
2018-12-13T10:59:04.732Z,40.85
2018-12-13T11:00:43.743Z,36.58
2018-12-13T11:02:24.007Z,35.45
2018-12-13T11:03:58.918Z,35.75
2018-12-13T11:05:33.848Z,36.68
2018-12-13T11:07:08.788Z,38.28
2018-12-13T11:08:43.774Z,33.83
2018-12-13T11:10:18.680Z,37.78
2018-12-13T11:11:53.567Z,35.92
2018-12-13T11:13:28.516Z,32.90
2018-12-13T11:15:03.516Z,33.38
2018-12-13T11:16:38.465Z,35.48
2018-12-13T11:18:13.424Z,35.85
2018-12-13T11:19:48.338Z,33.50
2018-12-13T11:21:23.316Z,36.33
2018-12-13T11:22:58.318Z,37.55
2018-12-13T11:24:33.375Z,36.13
2018-12-13T11:26:08.306Z,34.48
2018-12-13T11:28:31.148Z,37.15
2018-12-13T11:30:38.563Z,37.63
2018-12-13T11:32:13.505Z,37.08
2018-12-13T11:33:48.504Z,38.30
2018-12-13T11:35:23.496Z,35.58
2018-12-13T11:36:58.459Z,41.48
2018-12-13T11:38:33.424Z,36.03
2018-12-13T11:40:08.500Z,37.80
2018-12-13T11:41:43.451Z,35.45
2018-12-13T11:43:18.441Z,35.50
2018-12-13T11:44:53.369Z,35.52
2018-12-13T11:46:28.327Z,36.95
2018-12-13T11:48:03.265Z,35.70
2018-12-13T11:49:38.264Z,32.55
2018-12-13T11:51:13.184Z,36.63
2018-12-13T11:52:48.106Z,33.53
2018-12-13T11:54:43.699Z,35.20
2018-12-13T11:56:18.635Z,38.15
2018-12-13T11:57:53.568Z,33.78
2018-12-13T11:59:28.491Z,40.80
2018-12-13T12:01:03.524Z,37.03
2018-12-13T12:02:38.440Z,38.08
2018-12-13T12:04:13.362Z,35.85
2018-12-13T12:05:48.285Z,39.38
2018-12-13T12:07:23.319Z,36.65
2018-12-13T12:08:58.243Z,36.83
2018-12-13T12:10:33.328Z,39.42
2018-12-13T12:12:08.243Z,41.98
2018-12-13T12:13:43.212Z,37.88
2018-12-13T12:15:18.278Z,36.33
2018-12-13T12:16:53.207Z,40.75
2018-12-13T12:18:28.139Z,38.45
2018-12-13T12:20:03.297Z,36.88
2018-12-13T12:21:38.300Z,38.33
2018-12-13T12:23:13.304Z,41.70
2018-12-13T12:24:48.296Z,39.55
2018-12-13T12:26:23.255Z,38.63
2018-12-13T12:27:58.171Z,43.13
2018-12-13T12:29:33.170Z,37.28
2018-12-13T12:31:08.108Z,41.75
2018-12-13T12:32:43.032Z,41.20
2018-12-13T12:34:18.045Z,38.88
2018-12-13T12:35:53.077Z,37.30
2018-12-13T12:37:28.069Z,40.80
2018-12-13T12:39:03.032Z,40.12
2018-12-13T12:40:37.951Z,37.70
2018-12-13T12:42:12.912Z,41.60
2018-12-13T12:43:47.812Z,41.58
2018-12-13T12:45:22.747Z,38.70
2018-12-13T12:46:57.627Z,37.63
2018-12-13T12:48:32.632Z,37.25
2018-12-13T12:50:09.409Z,35.40
2018-12-13T12:51:44.351Z,33.80
2018-12-13T12:53:19.261Z,37.08
2018-12-13T12:54:54.297Z,35.70
2018-12-13T12:56:29.284Z,36.93
2018-12-13T12:58:04.275Z,37.40
2018-12-13T12:59:39.183Z,39.42
2018-12-13T13:01:14.175Z,34.35
2018-12-13T13:02:49.266Z,33.95
2018-12-13T13:04:24.212Z,32.85
2018-12-13T13:05:59.116Z,32.70
2018-12-13T13:07:34.085Z,36.73
2018-12-13T13:09:10.123Z,33.18
2018-12-13T13:10:46.552Z,34.08
2018-12-13T13:12:22.148Z,39.18
2018-12-13T13:13:57.358Z,35.45
2018-12-13T13:15:32.444Z,33.53
2018-12-13T13:17:07.552Z,33.30
2018-12-13T13:18:42.651Z,34.50
2018-12-13T13:20:17.900Z,32.23
2018-12-13T13:21:53.069Z,30.15
2018-12-13T13:23:28.172Z,32.40
2018-12-13T13:25:03.303Z,33.73
2018-12-13T13:26:39.130Z,32.95
2018-12-13T13:28:14.265Z,34.95
2018-12-13T13:29:49.360Z,37.70
2018-12-13T13:31:24.552Z,36.25
2018-12-13T13:32:59.753Z,29.70
2018-12-13T13:34:34.912Z,34.75
2018-12-13T13:36:10.291Z,33.28
2018-12-13T13:37:50.482Z,34.50
2018-12-13T13:39:31.350Z,35.28
2018-12-13T13:41:03.154Z,31.62
2018-12-13T13:42:38.287Z,34.50
2018-12-13T13:44:13.715Z,37.50
2018-12-13T13:45:49.014Z,38.63
2018-12-13T13:47:24.933Z,37.28
2018-12-13T13:49:00.111Z,38.30
2018-12-13T13:50:35.230Z,34.92
2018-12-13T13:52:10.432Z,35.80
2018-12-13T13:53:45.528Z,40.35
2018-12-13T13:55:20.687Z,39.20
2018-12-13T13:56:55.814Z,37.60
2018-12-13T13:58:31.076Z,41.77
2018-12-13T14:00:09.665Z,38.02
2018-12-13T14:01:44.757Z,44.30
2018-12-13T14:03:19.891Z,38.90
2018-12-13T14:04:55.075Z,37.05
2018-12-13T14:06:30.225Z,37.05
2018-12-13T14:08:05.364Z,40.58
2018-12-13T14:09:40.513Z,41.37
2018-12-13T14:11:15.680Z,39.90
2018-12-13T14:12:50.836Z,40.00
2018-12-13T14:14:25.938Z,36.93
2018-12-13T14:16:01.042Z,34.25
2018-12-13T14:17:36.237Z,39.48
2018-12-13T14:19:11.391Z,38.83
2018-12-13T14:20:46.575Z,40.58
2018-12-13T14:22:21.673Z,35.63
2018-12-13T14:23:56.865Z,35.52
2018-12-13T14:25:31.984Z,37.98
2018-12-13T14:27:07.321Z,36.60
2018-12-13T14:28:42.489Z,37.42
2018-12-13T14:30:17.682Z,37.10
2018-12-13T14:31:52.830Z,36.17
2018-12-13T14:33:27.948Z,36.88
2018-12-13T14:35:03.060Z,38.45
2018-12-13T14:36:38.893Z,37.42
2018-12-13T14:38:14.177Z,37.13
2018-12-13T14:39:49.292Z,33.58
2018-12-13T14:41:24.368Z,35.68
2018-12-13T14:42:59.587Z,35.45
2018-12-13T14:44:34.704Z,33.38
2018-12-13T14:46:09.797Z,38.48
2018-12-13T14:47:45.462Z,34.27
2018-12-13T14:49:20.618Z,36.28
2018-12-13T14:50:55.759Z,37.70
2018-12-13T14:52:30.911Z,31.12
2018-12-13T14:54:06.171Z,34.78
2018-12-13T14:55:41.374Z,37.63
2018-12-13T14:57:16.505Z,37.55
2018-12-13T14:58:52.439Z,38.50
2018-12-13T15:00:27.577Z,38.08
2018-12-13T15:02:02.817Z,37.70
2018-12-13T15:03:37.896Z,39.48
2018-12-13T15:05:13.433Z,40.33
2018-12-13T15:06:48.510Z,34.30
2018-12-13T15:08:23.733Z,34.48
2018-12-13T15:09:58.818Z,34.60
2018-12-13T15:11:33.928Z,35.28
2018-12-13T15:13:09.062Z,37.83
2018-12-13T15:14:44.312Z,35.58
2018-12-13T15:16:19.411Z,38.10
2018-12-13T15:17:54.513Z,36.90
2018-12-13T15:19:29.627Z,36.35
2018-12-13T15:21:09.468Z,34.67
2018-12-13T15:22:44.661Z,33.38
2018-12-13T15:24:19.844Z,36.95
2018-12-13T15:25:54.964Z,38.02
2018-12-13T15:27:30.160Z,36.95
2018-12-13T15:29:05.305Z,37.45
2018-12-13T15:30:40.416Z,35.50
2018-12-13T15:32:15.489Z,36.00
2018-12-13T15:33:50.676Z,36.25
2018-12-13T15:35:25.775Z,33.48
2018-12-13T15:37:00.876Z,33.83
2018-12-13T15:38:36.084Z,36.38
2018-12-13T15:40:11.317Z,36.80
2018-12-13T15:41:46.446Z,38.42
2018-12-13T15:43:21.600Z,40.63
2018-12-13T15:44:56.733Z,38.23
2018-12-13T15:46:31.948Z,38.65
2018-12-13T15:48:07.229Z,37.90
2018-12-13T15:49:42.580Z,36.05
2018-12-13T15:51:17.654Z,40.05
2018-12-13T15:52:52.784Z,36.00
2018-12-13T15:54:27.900Z,36.38
2018-12-13T15:56:03.025Z,35.70
2018-12-13T15:57:38.286Z,37.88
2018-12-13T15:59:13.484Z,36.85
2018-12-13T16:00:48.566Z,38.53
2018-12-13T16:02:23.653Z,40.40
2018-12-13T16:03:58.722Z,40.30
2018-12-13T16:05:33.873Z,40.05
2018-12-13T16:07:08.970Z,39.03
2018-12-13T16:08:44.112Z,42.62
2018-12-13T16:10:19.205Z,38.73
2018-12-13T16:11:54.404Z,39.53
2018-12-13T16:13:29.564Z,40.20
2018-12-13T16:15:05.296Z,40.00
2018-12-13T16:16:40.434Z,36.77
2018-12-13T16:18:15.633Z,37.58
2018-12-13T16:19:50.549Z,37.05
2018-12-13T16:21:25.501Z,34.15
2018-12-13T16:23:00.423Z,37.73
2018-12-13T16:24:35.472Z,35.38
2018-12-13T16:26:10.431Z,35.40
2018-12-13T16:27:45.347Z,37.10
2018-12-13T16:29:20.281Z,38.28
2018-12-13T16:30:55.234Z,36.65
2018-12-13T16:32:30.179Z,37.05
2018-12-13T16:34:05.099Z,36.15
2018-12-13T16:35:40.053Z,41.15
2018-12-13T16:37:15.052Z,35.05
2018-12-13T16:38:50.021Z,40.73
2018-12-13T16:40:24.960Z,39.45
2018-12-13T16:41:59.856Z,35.20
2018-12-13T16:43:34.789Z,35.10
2018-12-13T16:45:09.967Z,40.00
2018-12-13T16:46:44.887Z,38.45
2018-12-13T16:48:19.952Z,37.98
2018-12-13T16:49:54.855Z,42.30
2018-12-13T16:51:29.853Z,39.30
2018-12-13T16:53:07.614Z,37.75
2018-12-13T16:54:42.530Z,36.03
2018-12-13T16:56:17.431Z,39.67
2018-12-13T16:57:52.443Z,37.03
2018-12-13T16:59:27.356Z,39.67
2018-12-13T17:01:02.302Z,38.02
2018-12-13T17:02:37.206Z,38.17
2018-12-13T17:04:12.278Z,35.75
2018-12-13T17:05:47.215Z,41.83
2018-12-13T17:07:22.152Z,39.30
2018-12-13T17:08:57.108Z,39.88
2018-12-13T17:10:32.130Z,37.13
2018-12-13T17:12:07.092Z,36.05
2018-12-13T17:13:41.984Z,36.28
2018-12-13T17:15:16.913Z,37.33
2018-12-13T17:16:51.882Z,34.25
2018-12-13T17:18:26.943Z,40.48
2018-12-13T17:20:01.860Z,39.53
2018-12-13T17:21:36.783Z,36.98
2018-12-13T17:23:11.815Z,37.98
2018-12-13T17:24:46.739Z,41.55
2018-12-13T17:26:21.812Z,40.55
2018-12-13T17:27:56.772Z,41.05
2018-12-13T17:29:31.795Z,37.88
2018-12-13T17:31:13.237Z,34.63
2018-12-13T17:32:48.172Z,40.80
2018-12-13T17:34:23.074Z,37.25
2018-12-13T17:35:58.243Z,38.00
2018-12-13T17:37:33.153Z,38.83
2018-12-13T17:39:08.749Z,37.95
2018-12-13T17:40:43.692Z,41.00
2018-12-13T17:42:18.719Z,38.15
2018-12-13T17:43:53.639Z,41.73
2018-12-13T17:45:30.593Z,42.27
2018-12-13T17:47:05.629Z,41.55
2018-12-13T17:48:40.662Z,44.65
2018-12-13T17:50:15.602Z,44.23
2018-12-13T17:51:50.614Z,40.17
2018-12-13T17:53:25.622Z,44.48
2018-12-13T17:55:00.748Z,42.05
2018-12-13T17:56:35.654Z,46.02
2018-12-13T17:58:10.647Z,42.30
2018-12-13T17:59:45.574Z,42.58
2018-12-13T18:01:20.625Z,44.95
2018-12-13T18:02:55.554Z,42.15
2018-12-13T18:04:31.480Z,42.80
2018-12-13T18:06:06.429Z,44.77
2018-12-13T18:07:41.400Z,43.25
2018-12-13T18:09:16.310Z,38.00
2018-12-13T18:10:51.364Z,44.60
2018-12-13T18:12:26.325Z,45.67
2018-12-13T18:14:01.259Z,43.35
2018-12-13T18:15:36.227Z,45.50
2018-12-13T18:17:11.238Z,45.35
2018-12-13T18:18:46.172Z,45.92
2018-12-13T18:20:21.095Z,43.13
2018-12-13T18:21:56.136Z,43.73
2018-12-13T18:23:31.128Z,42.88
2018-12-13T18:25:06.348Z,44.38
2018-12-13T18:26:41.252Z,46.37
2018-12-13T18:28:16.176Z,45.90
2018-12-13T18:29:51.215Z,49.90
2018-12-13T18:31:26.209Z,47.50
2018-12-13T18:33:01.138Z,46.58
2018-12-13T18:34:36.172Z,44.93
2018-12-13T18:36:11.105Z,48.28
2018-12-13T18:37:46.071Z,47.25
2018-12-13T18:39:21.028Z,47.70
2018-12-13T18:40:55.968Z,47.45
2018-12-13T18:42:30.872Z,45.78
2018-12-13T18:44:05.982Z,48.50
2018-12-13T18:45:40.985Z,48.33
2018-12-13T18:47:15.907Z,49.88
2018-12-13T18:48:50.849Z,53.75
2018-12-13T18:50:25.760Z,44.77
2018-12-13T18:52:00.788Z,50.05
2018-12-13T18:53:35.696Z,47.67
2018-12-13T18:55:10.644Z,47.88
2018-12-13T18:56:45.526Z,48.70
2018-12-13T18:58:20.484Z,46.90
2018-12-13T18:59:55.391Z,49.75
2018-12-13T19:01:30.323Z,46.35
2018-12-13T19:03:05.241Z,43.98
2018-12-13T19:04:40.224Z,46.40
2018-12-13T19:06:15.122Z,47.38
2018-12-13T19:07:50.035Z,49.60
2018-12-13T19:09:24.960Z,47.88
2018-12-13T19:11:00.024Z,45.12
2018-12-13T19:12:35.023Z,44.67
2018-12-13T19:14:09.943Z,43.38
2018-12-13T19:15:44.920Z,49.38
2018-12-13T19:17:19.800Z,46.98
2018-12-13T19:18:58.792Z,44.27
2018-12-13T19:20:33.720Z,45.10
2018-12-13T19:22:08.655Z,48.00
2018-12-13T19:23:43.565Z,45.88
2018-12-13T19:25:18.567Z,47.45
2018-12-13T19:26:53.492Z,49.50
2018-12-13T19:28:28.432Z,48.95
2018-12-13T19:30:03.533Z,50.88
2018-12-13T19:31:38.575Z,47.95
2018-12-13T19:33:13.471Z,50.33
2018-12-13T19:34:48.471Z,51.85
2018-12-13T19:36:26.146Z,48.75
2018-12-13T19:38:01.150Z,54.58
2018-12-13T19:39:36.064Z,56.15
2018-12-13T19:41:14.007Z,53.48
2018-12-13T19:42:48.940Z,48.40
2018-12-13T19:44:23.922Z,50.35
2018-12-13T19:45:58.809Z,49.77
2018-12-13T19:47:33.760Z,47.05
2018-12-13T19:49:08.653Z,52.75
2018-12-13T19:50:43.901Z,47.43
2018-12-13T19:52:18.904Z,43.45
2018-12-13T19:53:53.839Z,42.17
2018-12-13T19:55:28.748Z,45.50
2018-12-13T19:57:03.759Z,41.90
2018-12-13T19:58:38.719Z,41.50
2018-12-13T20:00:13.683Z,43.52
2018-12-13T20:01:48.594Z,45.00
2018-12-13T20:03:23.587Z,37.50
2018-12-13T20:04:58.483Z,37.48
2018-12-13T20:06:33.379Z,38.40
2018-12-13T20:08:08.308Z,36.28
2018-12-13T20:09:43.263Z,38.70
2018-12-13T20:11:18.199Z,40.78
2018-12-13T20:12:53.099Z,35.98
2018-12-13T20:14:28.167Z,39.78
2018-12-13T20:16:03.129Z,37.67
2018-12-13T20:17:38.068Z,35.95
2018-12-13T20:19:12.992Z,35.25
2018-12-13T20:20:54.604Z,39.30
2018-12-13T20:22:29.675Z,37.85
2018-12-13T20:24:04.609Z,35.23
2018-12-13T20:25:40.019Z,39.92
2018-12-13T20:27:14.956Z,35.95
2018-12-13T20:28:49.947Z,38.92